Time,TemperatureF,DewpointF,PressureIn,WindDirection,WindDirectionDegrees,WindSpeedMPH,WindSpeedGustMPH,Humidity,HourlyPrecipIn,Conditions,Clouds,dailyrainin,SoftwareType,DateUTC
2013-08-17 00:13:00,71.0,71.0,-100.00,NNE,26,0.0,4.0,99,0.00,,,0.45,,2013-08-17 05:13:00,
2013-08-17 00:22:00,71.0,71.0,-100.00,NNE,26,0.0,4.0,99,0.00,,,0.45,,2013-08-17 05:22:00,
2013-08-17 00:32:00,71.0,71.0,-100.00,NNE,26,0.0,4.0,99,0.00,,,0.45,,2013-08-17 05:32:00,
2013-08-17 00:42:00,71.0,71.0,-100.00,NNE,26,0.0,4.0,99,0.00,,,0.45,,2013-08-17 05:42:00,
2013-08-17 01:12:00,71.0,71.0,-100.00,East,84,1.0,2.0,99,0.00,,,0.45,,2013-08-17 06:12:00,
2013-08-17 01:21:00,71.0,71.0,-100.00,East,84,1.0,2.0,99,0.00,,,0.45,,2013-08-17 06:21:00,
2013-08-17 01:31:00,71.0,71.0,-100.00,East,84,1.0,2.0,99,0.00,,,0.45,,2013-08-17 06:31:00,
2013-08-17 01:42:00,71.0,71.0,-100.00,East,84,1.0,2.0,99,0.00,,,0.45,,2013-08-17 06:42:00,
2013-08-17 02:11:00,71.0,71.0,-100.00,SE,142,1.0,2.0,99,0.00,,,0.45,,2013-08-17 07:11:00,
2013-08-17 02:22:00,71.0,71.0,-100.00,SE,142,1.0,2.0,99,0.00,,,0.45,,2013-08-17 07:22:00,
2013-08-17 02:32:00,71.0,71.0,-100.00,SE,142,1.0,2.0,99,0.00,,,0.45,,2013-08-17 07:32:00,
2013-08-17 02:42:00,71.0,71.0,-100.00,SE,142,1.0,2.0,99,0.00,,,0.45,,2013-08-17 07:42:00,
2013-08-17 03:11:00,71.0,71.0,-100.00,South,187,1.0,3.0,99,0.00,,,0.45,,2013-08-17 08:11:00,
2013-08-17 03:21:00,71.0,71.0,-100.00,South,187,1.0,3.0,99,0.00,,,0.45,,2013-08-17 08:21:00,
2013-08-17 03:32:00,71.0,71.0,-100.00,South,187,1.0,3.0,99,0.00,,,0.45,,2013-08-17 08:32:00,
2013-08-17 03:42:00,71.0,71.0,-100.00,South,187,1.0,3.0,99,0.00,,,0.45,,2013-08-17 08:42:00,
2013-08-17 04:11:00,71.0,71.0,-100.00,NNE,25,0.0,2.0,99,0.00,,,0.45,,2013-08-17 09:11:00,
2013-08-17 04:21:00,71.0,71.0,-100.00,NNE,25,0.0,2.0,99,0.00,,,0.45,,2013-08-17 09:21:00,
2013-08-17 04:33:00,71.0,71.0,-100.00,NNE,25,0.0,2.0,99,0.00,,,0.45,,2013-08-17 09:33:00,
2013-08-17 04:43:00,71.0,71.0,-100.00,NNE,25,0.0,2.0,99,0.00,,,0.45,,2013-08-17 09:43:00,
2013-08-17 05:12:00,71.0,71.0,-100.00,NE,48,1.0,3.0,99,0.00,,,0.45,,2013-08-17 10:12:00,
2013-08-17 05:23:00,71.0,71.0,-100.00,NE,48,1.0,3.0,99,0.00,,,0.45,,2013-08-17 10:23:00,
2013-08-17 05:32:00,71.0,71.0,-100.00,NE,48,1.0,3.0,99,0.00,,,0.45,,2013-08-17 10:32:00,
2013-08-17 05:42:00,71.0,71.0,-100.00,NE,48,1.0,3.0,99,0.00,,,0.45,,2013-08-17 10:42:00,
2013-08-17 06:11:00,71.0,71.0,-100.00,South,170,1.0,3.0,99,0.00,,,0.45,,2013-08-17 11:11:00,
2013-08-17 06:22:00,71.0,71.0,-100.00,South,170,1.0,3.0,99,0.00,,,0.45,,2013-08-17 11:22:00,
2013-08-17 06:32:00,71.0,71.0,-100.00,South,170,1.0,3.0,99,0.00,,,0.45,,2013-08-17 11:32:00,
2013-08-17 06:42:00,71.0,71.0,-100.00,South,170,1.0,3.0,99,0.00,,,0.45,,2013-08-17 11:42:00,
2013-08-17 07:11:00,72.0,72.0,-100.00,SE,146,2.0,4.0,99,0.00,,,0.45,,2013-08-17 12:11:00,
2013-08-17 07:21:00,72.0,72.0,-100.00,SE,146,2.0,4.0,99,0.00,,,0.45,,2013-08-17 12:21:00,
2013-08-17 07:32:00,72.0,72.0,-100.00,SE,146,2.0,4.0,99,0.00,,,0.45,,2013-08-17 12:32:00,
2013-08-17 07:42:00,72.0,72.0,-100.00,SE,146,2.0,4.0,99,0.00,,,0.45,,2013-08-17 12:42:00,
2013-08-17 08:11:00,73.0,73.0,-100.00,SE,136,1.0,5.0,99,0.00,,,0.45,,2013-08-17 13:11:00,
2013-08-17 08:21:00,73.0,73.0,-100.00,SE,136,1.0,5.0,99,0.00,,,0.45,,2013-08-17 13:21:00,
2013-08-17 08:32:00,73.0,73.0,-100.00,SE,136,1.0,5.0,99,0.00,,,0.45,,2013-08-17 13:32:00,
2013-08-17 08:42:00,73.0,73.0,-100.00,SE,136,1.0,5.0,99,0.00,,,0.45,,2013-08-17 13:42:00,
2013-08-17 09:11:00,74.0,74.0,-100.00,ESE,118,2.0,6.0,99,0.00,,,0.45,,2013-08-17 14:11:00,
2013-08-17 09:21:00,74.0,74.0,-100.00,ESE,118,2.0,6.0,99,0.00,,,0.45,,2013-08-17 14:21:00,
2013-08-17 09:32:00,74.0,74.0,-100.00,ESE,118,2.0,6.0,99,0.00,,,0.45,,2013-08-17 14:32:00,
2013-08-17 09:42:00,74.0,74.0,-100.00,ESE,118,2.0,6.0,99,0.00,,,0.45,,2013-08-17 14:42:00,
2013-08-17 10:11:00,76.0,76.0,-100.00,SE,126,3.0,7.0,99,0.00,,,0.45,,2013-08-17 15:11:00,
2013-08-17 10:22:00,76.0,76.0,-100.00,SE,126,3.0,7.0,99,0.00,,,0.45,,2013-08-17 15:22:00,
2013-08-17 10:33:00,76.0,76.0,-100.00,SE,126,3.0,7.0,99,0.00,,,0.45,,2013-08-17 15:33:00,
2013-08-17 10:44:00,76.0,76.0,-100.00,SE,126,3.0,7.0,99,0.00,,,0.45,,2013-08-17 15:44:00,
2013-08-17 11:12:00,77.0,72.0,-100.00,ESE,107,2.0,6.0,86,0.00,,,0.45,,2013-08-17 16:12:00,
2013-08-17 11:23:00,77.0,72.0,-100.00,ESE,107,2.0,6.0,86,0.00,,,0.45,,2013-08-17 16:23:00,
2013-08-17 11:33:00,77.0,72.0,-100.00,ESE,107,2.0,6.0,86,0.00,,,0.45,,2013-08-17 16:33:00,
2013-08-17 11:42:00,77.0,72.0,-100.00,ESE,107,2.0,6.0,86,0.00,,,0.45,,2013-08-17 16:42:00,
2013-08-17 12:12:00,76.0,71.0,-100.00,SE,125,2.0,6.0,84,0.00,,,0.45,,2013-08-17 17:12:00,
2013-08-17 12:23:00,76.0,71.0,-100.00,SE,125,2.0,6.0,84,0.00,,,0.45,,2013-08-17 17:23:00,
2013-08-17 12:32:00,76.0,71.0,-100.00,SE,125,2.0,6.0,84,0.00,,,0.45,,2013-08-17 17:32:00,
2013-08-17 12:42:00,76.0,71.0,-100.00,SE,125,2.0,6.0,84,0.00,,,0.45,,2013-08-17 17:42:00,
2013-08-17 13:12:00,77.0,72.0,-100.00,SE,131,2.0,5.0,84,0.00,,,0.45,,2013-08-17 18:12:00,
2013-08-17 13:21:00,77.0,72.0,-100.00,SE,131,2.0,5.0,84,0.00,,,0.45,,2013-08-17 18:21:00,
2013-08-17 13:32:00,77.0,72.0,-100.00,SE,131,2.0,5.0,84,0.00,,,0.45,,2013-08-17 18:32:00,
2013-08-17 13:42:00,77.0,72.0,-100.00,SE,131,2.0,5.0,84,0.00,,,0.45,,2013-08-17 18:42:00,
2013-08-17 14:11:00,78.0,73.0,-100.00,SE,128,2.0,7.0,84,0.00,,,0.45,,2013-08-17 19:11:00,
2013-08-17 14:21:00,78.0,73.0,-100.00,SE,128,2.0,7.0,84,0.00,,,0.45,,2013-08-17 19:21:00,
2013-08-17 14:31:00,78.0,73.0,-100.00,SE,128,2.0,7.0,84,0.00,,,0.45,,2013-08-17 19:31:00,
2013-08-17 14:42:00,78.0,73.0,-100.00,SE,128,2.0,7.0,84,0.00,,,0.45,,2013-08-17 19:42:00,
2013-08-17 15:11:00,77.0,71.0,-100.00,East,86,2.0,7.0,83,0.00,,,0.45,,2013-08-17 20:11:00,
2013-08-17 15:21:00,77.0,71.0,-100.00,East,86,2.0,7.0,83,0.00,,,0.45,,2013-08-17 20:21:00,
2013-08-17 15:32:00,77.0,71.0,-100.00,East,86,2.0,7.0,83,0.00,,,0.45,,2013-08-17 20:32:00,
2013-08-17 15:42:00,77.0,71.0,-100.00,East,86,2.0,7.0,83,0.00,,,0.45,,2013-08-17 20:42:00,
2013-08-17 16:11:00,76.0,73.0,-100.00,East,100,2.0,5.0,91,0.00,,,0.45,,2013-08-17 21:11:00,
2013-08-17 16:21:00,76.0,73.0,-100.00,East,100,2.0,5.0,91,0.00,,,0.45,,2013-08-17 21:21:00,
2013-08-17 16:33:00,76.0,73.0,-100.00,East,100,2.0,5.0,91,0.00,,,0.45,,2013-08-17 21:33:00,
2013-08-17 16:42:00,76.0,73.0,-100.00,East,100,2.0,5.0,91,0.00,,,0.45,,2013-08-17 21:42:00,
2013-08-17 17:13:00,77.0,73.0,-100.00,East,95,2.0,6.0,87,0.00,,,0.45,,2013-08-17 22:13:00,
2013-08-17 17:23:00,77.0,73.0,-100.00,East,95,2.0,6.0,87,0.00,,,0.45,,2013-08-17 22:23:00,
2013-08-17 17:33:00,77.0,73.0,-100.00,East,95,2.0,6.0,87,0.00,,,0.45,,2013-08-17 22:33:00,
2013-08-17 17:42:00,77.0,73.0,-100.00,East,95,2.0,6.0,87,0.00,,,0.45,,2013-08-17 22:42:00,
2013-08-17 18:11:00,76.0,72.0,-100.00,ESE,117,2.0,6.0,86,0.00,,,0.45,,2013-08-17 23:11:00,
2013-08-17 18:22:00,76.0,72.0,-100.00,ESE,117,2.0,6.0,86,0.00,,,0.45,,2013-08-17 23:22:00,
2013-08-17 18:32:00,76.0,72.0,-100.00,ESE,117,2.0,6.0,86,0.00,,,0.45,,2013-08-17 23:32:00,
2013-08-17 18:42:00,76.0,72.0,-100.00,ESE,117,2.0,6.0,86,0.00,,,0.45,,2013-08-17 23:42:00,
2013-08-17 19:12:00,73.0,71.0,-100.00,SSE,150,1.0,5.0,94,0.01,,,0.46,,2013-08-18 00:12:00,
2013-08-17 19:21:00,73.0,71.0,-100.00,SSE,150,1.0,5.0,94,0.01,,,0.46,,2013-08-18 00:21:00,
2013-08-17 19:32:00,73.0,71.0,-100.00,SSE,150,1.0,5.0,94,0.01,,,0.46,,2013-08-18 00:32:00,
2013-08-17 19:42:00,73.0,71.0,-100.00,SSE,150,1.0,5.0,94,0.01,,,0.46,,2013-08-18 00:42:00,
2013-08-17 20:11:00,73.0,72.0,-100.00,ESE,103,1.0,4.0,96,0.00,,,0.46,,2013-08-18 01:11:00,
2013-08-17 20:21:00,73.0,72.0,-100.00,ESE,103,1.0,4.0,96,0.00,,,0.46,,2013-08-18 01:21:00,
2013-08-17 20:31:00,73.0,72.0,-100.00,ESE,103,1.0,4.0,96,0.00,,,0.46,,2013-08-18 01:31:00,
2013-08-17 20:42:00,73.0,72.0,-100.00,ESE,103,1.0,4.0,96,0.00,,,0.46,,2013-08-18 01:42:00,
2013-08-17 21:11:00,72.0,71.0,-100.00,SE,129,1.0,3.0,97,0.01,,,0.47,,2013-08-18 02:11:00,
2013-08-17 21:21:00,72.0,71.0,-100.00,SE,129,1.0,3.0,97,0.01,,,0.47,,2013-08-18 02:21:00,
2013-08-17 21:32:00,72.0,71.0,-100.00,SE,129,1.0,3.0,97,0.01,,,0.47,,2013-08-18 02:32:00,
2013-08-17 21:42:00,72.0,71.0,-100.00,SE,129,1.0,3.0,97,0.01,,,0.47,,2013-08-18 02:42:00,
2013-08-17 22:11:00,72.0,71.0,-100.00,East,97,1.0,6.0,98,0.00,,,0.02,,2013-08-18 03:11:00,
2013-08-17 22:21:00,72.0,71.0,-100.00,East,97,1.0,6.0,98,0.00,,,0.02,,2013-08-18 03:21:00,
2013-08-17 22:33:00,72.0,71.0,-100.00,East,97,1.0,6.0,98,0.00,,,0.02,,2013-08-18 03:33:00,
2013-08-17 22:43:00,72.0,71.0,-100.00,East,97,1.0,6.0,98,0.00,,,0.02,,2013-08-18 03:43:00,
2013-08-17 23:02:00,-999.0,-99.9,-100.00,East,90,1.0,4.0,-999,0.00,,,0.02,,2013-08-18 04:02:00,
2013-08-17 23:12:00,72.0,72.0,-100.00,East,90,1.0,4.0,99,0.00,,,0.02,,2013-08-18 04:12:00,
2013-08-17 23:23:00,72.0,72.0,-100.00,East,90,1.0,4.0,99,0.00,,,0.02,,2013-08-18 04:23:00,
2013-08-17 23:32:00,72.0,72.0,-100.00,East,90,1.0,4.0,99,0.00,,,0.02,,2013-08-18 04:32:00,
2013-08-17 23:42:00,72.0,72.0,-100.00,East,90,1.0,4.0,99,0.00,,,0.02,,2013-08-18 04:42:00,